sensor_id;sensor_type;location;lat;lon;timestamp;pressure;altitude;pressure_sealevel;temperature;humidity
46718;BME280;32448;44.960;-0.698;2023-08-24T00:01:08;100925.59;;;25.81;100.00
46718;BME280;32448;44.960;-0.698;2023-08-24T00:03:54;100923.19;;;25.75;100.00
46718;BME280;32448;44.960;-0.698;2023-08-24T00:06:35;100915.31;;;25.72;100.00
46718;BME280;32448;44.960;-0.698;2023-08-24T00:09:08;100913.69;;;25.68;100.00
46718;BME280;32448;44.960;-0.698;2023-08-24T00:11:45;100911.94;;;25.67;100.00
46718;BME280;32448;44.960;-0.698;2023-08-24T00:14:20;100907.81;;;25.58;100.00
46718;BME280;32448;44.960;-0.698;2023-08-24T00:24:37;100899.72;;;25.39;100.00
46718;BME280;32448;44.960;-0.698;2023-08-24T00:27:10;100899.91;;;25.35;100.00
46718;BME280;32448;44.960;-0.698;2023-08-24T00:29:41;100897.56;;;25.27;100.00
46718;BME280;32448;44.960;-0.698;2023-08-24T00:32:13;100902.16;;;25.24;100.00
46718;BME280;32448;44.960;-0.698;2023-08-24T00:34:55;100897.78;;;25.21;100.00
46718;BME280;32448;44.960;-0.698;2023-08-24T00:37:37;100894.31;;;25.19;100.00
46718;BME280;32448;44.960;-0.698;2023-08-24T00:40:12;100903.53;;;25.12;100.00
46718;BME280;32448;44.960;-0.698;2023-08-24T00:42:46;100893.56;;;25.16;100.00
46718;BME280;32448;44.960;-0.698;2023-08-24T00:45:21;100891.72;;;25.18;100.00
46718;BME280;32448;44.960;-0.698;2023-08-24T00:47:56;100891.94;;;25.12;100.00
46718;BME280;32448;44.960;-0.698;2023-08-24T00:50:29;100885.13;;;25.05;100.00
46718;BME280;32448;44.960;-0.698;2023-08-24T00:53:06;100892.22;;;25.06;100.00
46718;BME280;32448;44.960;-0.698;2023-08-24T00:55:40;100886.06;;;25.03;100.00
46718;BME280;32448;44.960;-0.698;2023-08-24T00:58:15;100879.19;;;24.96;100.00
46718;BME280;32448;44.960;-0.698;2023-08-24T01:00:57;100881.16;;;24.93;100.00
46718;BME280;32448;44.960;-0.698;2023-08-24T01:03:33;100886.53;;;24.91;100.00
46718;BME280;32448;44.960;-0.698;2023-08-24T01:06:06;100887.50;;;24.89;100.00
46718;BME280;32448;44.960;-0.698;2023-08-24T01:08:37;100889.44;;;24.85;100.00
46718;BME280;32448;44.960;-0.698;2023-08-24T01:13:59;100887.56;;;24.87;100.00
46718;BME280;32448;44.960;-0.698;2023-08-24T01:16:43;100882.22;;;24.87;100.00
46718;BME280;32448;44.960;-0.698;2023-08-24T01:19:22;100874.34;;;24.84;100.00
46718;BME280;32448;44.960;-0.698;2023-08-24T01:21:56;100870.84;;;24.82;100.00
46718;BME280;32448;44.960;-0.698;2023-08-24T01:24:47;100872.75;;;24.79;100.00
46718;BME280;32448;44.960;-0.698;2023-08-24T01:27:23;100849.56;;;24.57;100.00
46718;BME280;32448;44.960;-0.698;2023-08-24T01:30:07;100870.47;;;24.70;100.00
46718;BME280;32448;44.960;-0.698;2023-08-24T01:32:49;100867.97;;;24.65;100.00
46718;BME280;32448;44.960;-0.698;2023-08-24T01:46:42;100865.16;;;24.46;100.00
46718;BME280;32448;44.960;-0.698;2023-08-24T01:49:21;100862.53;;;24.45;100.00
46718;BME280;32448;44.960;-0.698;2023-08-24T01:51:59;100862.63;;;24.42;100.00
46718;BME280;32448;44.960;-0.698;2023-08-24T01:54:34;100861.78;;;24.41;100.00
46718;BME280;32448;44.960;-0.698;2023-08-24T01:57:12;100866.38;;;24.38;100.00
46718;BME280;32448;44.960;-0.698;2023-08-24T01:59:49;100855.63;;;24.39;100.00
46718;BME280;32448;44.960;-0.698;2023-08-24T02:02:24;100851.94;;;24.42;100.00
46718;BME280;32448;44.960;-0.698;2023-08-24T02:05:02;100853.69;;;24.43;100.00
46718;BME280;32448;44.960;-0.698;2023-08-24T02:07:38;100848.59;;;24.37;100.00
46718;BME280;32448;44.960;-0.698;2023-08-24T02:10:17;100848.72;;;24.34;100.00
46718;BME280;32448;44.960;-0.698;2023-08-24T02:12:55;100849.69;;;24.31;100.00
46718;BME280;32448;44.960;-0.698;2023-08-24T02:15:32;100844.34;;;24.31;100.00
46718;BME280;32448;44.960;-0.698;2023-08-24T02:18:15;100841.06;;;24.24;100.00
46718;BME280;32448;44.960;-0.698;2023-08-24T02:20:51;100836.72;;;24.20;100.00
46718;BME280;32448;44.960;-0.698;2023-08-24T02:23:31;100834.91;;;24.21;100.00
46718;BME280;32448;44.960;-0.698;2023-08-24T02:26:11;100833.38;;;24.15;100.00
46718;BME280;32448;44.960;-0.698;2023-08-24T02:28:46;100830.84;;;24.11;100.00
46718;BME280;32448;44.960;-0.698;2023-08-24T02:31:24;100826.44;;;24.10;100.00
46718;BME280;32448;44.960;-0.698;2023-08-24T02:34:01;100826.50;;;24.08;100.00
46718;BME280;32448;44.960;-0.698;2023-08-24T02:36:36;100821.41;;;24.02;100.00
46718;BME280;32448;44.960;-0.698;2023-08-24T02:39:14;100815.09;;;24.05;100.00
46718;BME280;32448;44.960;-0.698;2023-08-24T02:41:49;100828.88;;;23.92;100.00
46718;BME280;32448;44.960;-0.698;2023-08-24T02:44:31;100825.34;;;23.92;100.00
46718;BME280;32448;44.960;-0.698;2023-08-24T02:47:06;100822.91;;;23.86;100.00
46718;BME280;32448;44.960;-0.698;2023-08-24T02:49:44;100820.13;;;23.89;100.00
46718;BME280;32448;44.960;-0.698;2023-08-24T02:52:20;100828.38;;;23.83;100.00
46718;BME280;32448;44.960;-0.698;2023-08-24T02:54:57;100805.84;;;23.90;100.00
46718;BME280;32448;44.960;-0.698;2023-08-24T02:57:34;100812.09;;;23.89;100.00
46718;BME280;32448;44.960;-0.698;2023-08-24T03:00:12;100813.28;;;23.82;100.00
46718;BME280;32448;44.960;-0.698;2023-08-24T03:03:00;100817.63;;;23.84;100.00
46718;BME280;32448;44.960;-0.698;2023-08-24T03:05:37;100807.97;;;23.80;100.00
46718;BME280;32448;44.960;-0.698;2023-08-24T03:08:12;100811.53;;;23.81;100.00
46718;BME280;32448;44.960;-0.698;2023-08-24T03:10:48;100815.13;;;23.80;100.00
46718;BME280;32448;44.960;-0.698;2023-08-24T03:13:31;100805.41;;;23.77;100.00
46718;BME280;32448;44.960;-0.698;2023-08-24T03:16:22;100801.09;;;23.75;100.00
46718;BME280;32448;44.960;-0.698;2023-08-24T03:19:09;100805.66;;;23.71;100.00
46718;BME280;32448;44.960;-0.698;2023-08-24T03:21:54;100801.28;;;23.69;100.00
46718;BME280;32448;44.960;-0.698;2023-08-24T03:24:36;100803.00;;;23.71;100.00
46718;BME280;32448;44.960;-0.698;2023-08-24T03:27:23;100810.94;;;23.73;100.00
46718;BME280;32448;44.960;-0.698;2023-08-24T03:30:03;100827.88;;;23.72;100.00
46718;BME280;32448;44.960;-0.698;2023-08-24T03:32:44;100877.16;;;23.86;100.00
46718;BME280;32448;44.960;-0.698;2023-08-24T03:35:22;100883.19;;;24.16;100.00
46718;BME280;32448;44.960;-0.698;2023-08-24T03:38:01;100909.88;;;24.41;100.00
46718;BME280;32448;44.960;-0.698;2023-08-24T03:40:42;100905.34;;;24.88;100.00
46718;BME280;32448;44.960;-0.698;2023-08-24T03:43:22;100900.97;;;25.09;100.00
46718;BME280;32448;44.960;-0.698;2023-08-24T03:57:18;100885.97;;;25.27;100.00
46718;BME280;32448;44.960;-0.698;2023-08-24T03:59:55;100883.59;;;25.19;100.00
46718;BME280;32448;44.960;-0.698;2023-08-24T04:02:27;100881.00;;;25.18;100.00
46718;BME280;32448;44.960;-0.698;2023-08-24T04:04:59;100893.53;;;25.17;100.00
46718;BME280;32448;44.960;-0.698;2023-08-24T04:07:49;100889.59;;;25.26;100.00
46718;BME280;32448;44.960;-0.698;2023-08-24T04:10:22;100884.81;;;25.12;100.00
46718;BME280;32448;44.960;-0.698;2023-08-24T04:12:55;100877.91;;;25.07;100.00
46718;BME280;32448;44.960;-0.698;2023-08-24T04:15:27;100887.75;;;25.06;100.00
46718;BME280;32448;44.960;-0.698;2023-08-24T04:17:59;100877.09;;;25.05;100.00
46718;BME280;32448;44.960;-0.698;2023-08-24T04:20:36;100878.34;;;24.96;100.00
46718;BME280;32448;44.960;-0.698;2023-08-24T04:23:15;100873.13;;;24.93;100.00
46718;BME280;32448;44.960;-0.698;2023-08-24T04:25:47;100873.84;;;24.96;100.00
46718;BME280;32448;44.960;-0.698;2023-08-24T04:28:27;100871.34;;;24.92;100.00
46718;BME280;32448;44.960;-0.698;2023-08-24T04:31:04;100876.38;;;24.78;100.00
46718;BME280;32448;44.960;-0.698;2023-08-24T04:33:43;100883.72;;;24.73;100.00
46718;BME280;32448;44.960;-0.698;2023-08-24T04:36:20;100879.53;;;24.65;100.00
46718;BME280;32448;44.960;-0.698;2023-08-24T04:38:59;100877.88;;;24.63;100.00
46718;BME280;32448;44.960;-0.698;2023-08-24T04:41:39;100876.84;;;24.65;100.00
46718;BME280;32448;44.960;-0.698;2023-08-24T04:44:09;100870.84;;;24.60;100.00
46718;BME280;32448;44.960;-0.698;2023-08-24T04:46:53;100872.06;;;24.52;100.00
46718;BME280;32448;44.960;-0.698;2023-08-24T04:49:35;100873.00;;;24.51;100.00
46718;BME280;32448;44.960;-0.698;2023-08-24T04:52:09;100874.09;;;24.45;100.00
46718;BME280;32448;44.960;-0.698;2023-08-24T04:54:42;100880.56;;;24.40;100.00
46718;BME280;32448;44.960;-0.698;2023-08-24T04:57:21;100892.44;;;24.31;100.00
46718;BME280;32448;44.960;-0.698;2023-08-24T04:59:54;100886.78;;;24.40;100.00
46718;BME280;32448;44.960;-0.698;2023-08-24T05:02:26;100896.66;;;24.38;100.00
46718;BME280;32448;44.960;-0.698;2023-08-24T05:05:01;100886.94;;;24.36;100.00
46718;BME280;32448;44.960;-0.698;2023-08-24T05:07:40;100890.72;;;24.30;100.00
46718;BME280;32448;44.960;-0.698;2023-08-24T05:10:14;100880.97;;;24.29;100.00
46718;BME280;32448;44.960;-0.698;2023-08-24T05:12:50;100872.03;;;24.30;100.00
46718;BME280;32448;44.960;-0.698;2023-08-24T05:15:34;100863.16;;;24.29;100.00
46718;BME280;32448;44.960;-0.698;2023-08-24T05:18:18;100871.22;;;24.28;100.00
46718;BME280;32448;44.960;-0.698;2023-08-24T05:20:54;100882.94;;;24.24;100.00
46718;BME280;32448;44.960;-0.698;2023-08-24T05:23:30;100873.31;;;24.18;100.00
46718;BME280;32448;44.960;-0.698;2023-08-24T05:26:05;100882.38;;;24.14;100.00
46718;BME280;32448;44.960;-0.698;2023-08-24T05:28:42;100870.25;;;24.06;100.00
46718;BME280;32448;44.960;-0.698;2023-08-24T05:31:18;100871.25;;;24.02;100.00
46718;BME280;32448;44.960;-0.698;2023-08-24T05:33:56;100870.41;;;24.01;100.00
46718;BME280;32448;44.960;-0.698;2023-08-24T05:36:34;100867.03;;;23.96;100.00
46718;BME280;32448;44.960;-0.698;2023-08-24T05:39:15;100863.59;;;23.92;100.00
46718;BME280;32448;44.960;-0.698;2023-08-24T05:41:52;100851.06;;;23.94;100.00
46718;BME280;32448;44.960;-0.698;2023-08-24T05:44:30;100852.88;;;23.94;100.00
46718;BME280;32448;44.960;-0.698;2023-08-24T05:47:06;100844.84;;;23.94;100.00
46718;BME280;32448;44.960;-0.698;2023-08-24T05:49:40;100841.53;;;23.87;100.00
46718;BME280;32448;44.960;-0.698;2023-08-24T05:52:15;100841.59;;;23.86;100.00
46718;BME280;32448;44.960;-0.698;2023-08-24T05:54:57;100836.38;;;23.83;100.00
46718;BME280;32448;44.960;-0.698;2023-08-24T05:57:33;100828.06;;;23.90;100.00
46718;BME280;32448;44.960;-0.698;2023-08-24T06:00:06;100816.75;;;23.84;100.00
46718;BME280;32448;44.960;-0.698;2023-08-24T06:02:51;100815.69;;;23.88;100.00
46718;BME280;32448;44.960;-0.698;2023-08-24T06:05:32;100811.13;;;23.91;100.00
46718;BME280;32448;44.960;-0.698;2023-08-24T06:08:09;100808.28;;;23.96;100.00
46718;BME280;32448;44.960;-0.698;2023-08-24T06:10:49;100805.78;;;23.91;100.00
46718;BME280;32448;44.960;-0.698;2023-08-24T06:13:26;100805.84;;;23.90;100.00
46718;BME280;32448;44.960;-0.698;2023-08-24T06:15:59;100811.28;;;23.87;100.00
46718;BME280;32448;44.960;-0.698;2023-08-24T06:18:35;100813.84;;;23.90;100.00
46718;BME280;32448;44.960;-0.698;2023-08-24T06:21:11;100809.31;;;23.92;100.00
46718;BME280;32448;44.960;-0.698;2023-08-24T06:23:49;100805.47;;;23.99;100.00
46718;BME280;32448;44.960;-0.698;2023-08-24T06:26:25;100798.28;;;24.01;100.00
46718;BME280;32448;44.960;-0.698;2023-08-24T06:28:59;100799.94;;;24.05;100.00
46718;BME280;32448;44.960;-0.698;2023-08-24T06:31:35;100802.25;;;24.14;100.00
46718;BME280;32448;44.960;-0.698;2023-08-24T06:34:09;100799.41;;;24.19;100.00
46718;BME280;32448;44.960;-0.698;2023-08-24T06:36:42;100795.91;;;24.17;100.00
46718;BME280;32448;44.960;-0.698;2023-08-24T06:39:17;100791.41;;;24.19;100.00
46718;BME280;32448;44.960;-0.698;2023-08-24T06:41:52;100796.75;;;24.19;100.00
46718;BME280;32448;44.960;-0.698;2023-08-24T06:44:26;100783.09;;;24.26;100.00
46718;BME280;32448;44.960;-0.698;2023-08-24T06:46:58;100783.59;;;24.36;100.00
46718;BME280;32448;44.960;-0.698;2023-08-24T06:49:36;100776.25;;;24.41;100.00
46718;BME280;32448;44.960;-0.698;2023-08-24T06:52:14;100776.03;;;24.47;100.00
46718;BME280;32448;44.960;-0.698;2023-08-24T06:54:49;100772.38;;;24.50;100.00
46718;BME280;32448;44.960;-0.698;2023-08-24T06:57:25;100778.28;;;24.58;100.00
46718;BME280;32448;44.960;-0.698;2023-08-24T06:59:58;100778.28;;;24.58;100.00
46718;BME280;32448;44.960;-0.698;2023-08-24T07:02:39;100787.91;;;24.62;100.00
46718;BME280;32448;44.960;-0.698;2023-08-24T07:05:18;100782.13;;;24.73;100.00
46718;BME280;32448;44.960;-0.698;2023-08-24T07:07:55;100782.63;;;24.82;100.00
46718;BME280;32448;44.960;-0.698;2023-08-24T07:10:28;100787.53;;;24.93;100.00
46718;BME280;32448;44.960;-0.698;2023-08-24T07:12:59;100778.72;;;25.11;100.00
46718;BME280;32448;44.960;-0.698;2023-08-24T07:15:52;100793.78;;;25.14;100.00
46718;BME280;32448;44.960;-0.698;2023-08-24T07:18:24;100783.63;;;25.22;100.00
46718;BME280;32448;44.960;-0.698;2023-08-24T07:21:05;100783.47;;;25.45;100.00
46718;BME280;32448;44.960;-0.698;2023-08-24T07:23:52;100785.22;;;25.46;100.00
46718;BME280;32448;44.960;-0.698;2023-08-24T07:26:36;100774.59;;;25.65;100.00
46718;BME280;32448;44.960;-0.698;2023-08-24T07:29:12;100767.22;;;25.70;100.00
46718;BME280;32448;44.960;-0.698;2023-08-24T07:31:47;100767.81;;;25.77;100.00
46718;BME280;32448;44.960;-0.698;2023-08-24T07:34:22;100763.75;;;25.87;100.00
46718;BME280;32448;44.960;-0.698;2023-08-24T07:36:55;100765.16;;;25.95;100.00
46718;BME280;32448;44.960;-0.698;2023-08-24T07:39:25;100750.44;;;26.23;100.00
46718;BME280;32448;44.960;-0.698;2023-08-24T07:42:06;100758.06;;;26.32;100.00
46718;BME280;32448;44.960;-0.698;2023-08-24T07:44:38;100766.97;;;26.32;100.00
46718;BME280;32448;44.960;-0.698;2023-08-24T07:47:12;100768.31;;;26.60;100.00
46718;BME280;32448;44.960;-0.698;2023-08-24T07:49:43;100768.66;;;26.71;100.00
46718;BME280;32448;44.960;-0.698;2023-08-24T07:52:14;100752.38;;;26.93;100.00
46718;BME280;32448;44.960;-0.698;2023-08-24T07:54:47;100740.59;;;27.30;100.00
46718;BME280;32448;44.960;-0.698;2023-08-24T07:57:31;100744.84;;;27.34;100.00
46718;BME280;32448;44.960;-0.698;2023-08-24T08:00:07;100750.59;;;27.43;100.00
46718;BME280;32448;44.960;-0.698;2023-08-24T08:02:53;100734.59;;;27.75;100.00
46718;BME280;32448;44.960;-0.698;2023-08-24T08:05:25;100737.63;;;27.84;100.00
46718;BME280;32448;44.960;-0.698;2023-08-24T08:07:59;100731.78;;;28.09;100.00
46718;BME280;32448;44.960;-0.698;2023-08-24T08:10:32;100738.03;;;28.10;100.00
46718;BME280;32448;44.960;-0.698;2023-08-24T08:13:11;100744.47;;;28.23;100.00
46718;BME280;32448;44.960;-0.698;2023-08-24T08:15:48;100734.97;;;28.63;100.00
46718;BME280;32448;44.960;-0.698;2023-08-24T08:18:36;100730.69;;;28.75;100.00
46718;BME280;32448;44.960;-0.698;2023-08-24T08:21:17;100740.41;;;28.93;100.00
46718;BME280;32448;44.960;-0.698;2023-08-24T08:23:55;100751.13;;;29.09;100.00
46718;BME280;32448;44.960;-0.698;2023-08-24T08:26:35;100746.81;;;29.20;100.00
46718;BME280;32448;44.960;-0.698;2023-08-24T08:29:09;100749.53;;;29.34;100.00
46718;BME280;32448;44.960;-0.698;2023-08-24T08:31:53;100745.94;;;29.64;100.00
46718;BME280;32448;44.960;-0.698;2023-08-24T08:34:32;100749.19;;;29.83;100.00
46718;BME280;32448;44.960;-0.698;2023-08-24T08:37:18;100759.50;;;30.05;100.00
46718;BME280;32448;44.960;-0.698;2023-08-24T08:40:02;100756.31;;;30.13;100.00
46718;BME280;32448;44.960;-0.698;2023-08-24T08:42:42;100754.09;;;30.19;100.00
46718;BME280;32448;44.960;-0.698;2023-08-24T08:45:20;100758.97;;;30.27;100.00
46718;BME280;32448;44.960;-0.698;2023-08-24T08:48:13;100753.81;;;30.51;100.00
46718;BME280;32448;44.960;-0.698;2023-08-24T08:51:07;100746.31;;;30.56;100.00
46718;BME280;32448;44.960;-0.698;2023-08-24T08:53:42;100756.94;;;30.71;100.00
46718;BME280;32448;44.960;-0.698;2023-08-24T08:56:31;100761.22;;;30.88;100.00
46718;BME280;32448;44.960;-0.698;2023-08-24T08:59:07;100758.44;;;31.02;100.00
46718;BME280;32448;44.960;-0.698;2023-08-24T09:01:45;100759.47;;;31.14;100.00
46718;BME280;32448;44.960;-0.698;2023-08-24T09:04:32;100753.84;;;31.30;100.00
46718;BME280;32448;44.960;-0.698;2023-08-24T09:07:06;100756.56;;;31.55;100.00
46718;BME280;32448;44.960;-0.698;2023-08-24T09:09:43;100756.94;;;31.63;100.00
46718;BME280;32448;44.960;-0.698;2023-08-24T09:12:15;100768.16;;;31.82;100.00
46718;BME280;32448;44.960;-0.698;2023-08-24T09:14:47;100787.34;;;32.16;100.00
46718;BME280;32448;44.960;-0.698;2023-08-24T09:17:23;100794.31;;;32.20;100.00
46718;BME280;32448;44.960;-0.698;2023-08-24T09:20:06;100820.00;;;32.38;100.00
46718;BME280;32448;44.960;-0.698;2023-08-24T09:22:42;100834.81;;;32.58;100.00
46718;BME280;32448;44.960;-0.698;2023-08-24T09:25:17;100830.75;;;33.00;100.00
46718;BME280;32448;44.960;-0.698;2023-08-24T09:28:01;100833.34;;;33.02;100.00
46718;BME280;32448;44.960;-0.698;2023-08-24T09:30:37;100828.53;;;33.29;100.00
46718;BME280;32448;44.960;-0.698;2023-08-24T09:33:18;100835.75;;;33.52;100.00
46718;BME280;32448;44.960;-0.698;2023-08-24T09:35:53;100842.56;;;33.58;100.00
46718;BME280;32448;44.960;-0.698;2023-08-24T09:38:36;100840.66;;;33.82;100.00
46718;BME280;32448;44.960;-0.698;2023-08-24T09:41:15;100830.53;;;33.84;100.00
46718;BME280;32448;44.960;-0.698;2023-08-24T09:43:45;100830.31;;;33.87;100.00
46718;BME280;32448;44.960;-0.698;2023-08-24T09:46:18;100822.28;;;33.86;100.00
46718;BME280;32448;44.960;-0.698;2023-08-24T09:48:55;100831.06;;;33.89;100.00
46718;BME280;32448;44.960;-0.698;2023-08-24T09:51:27;100829.34;;;34.11;100.00
46718;BME280;32448;44.960;-0.698;2023-08-24T09:53:59;100836.59;;;33.99;100.00
46718;BME280;32448;44.960;-0.698;2023-08-24T09:56:39;100827.97;;;34.16;100.00
46718;BME280;32448;44.960;-0.698;2023-08-24T09:59:17;100820.84;;;34.26;100.00
46718;BME280;32448;44.960;-0.698;2023-08-24T10:01:52;100818.34;;;34.23;100.00
46718;BME280;32448;44.960;-0.698;2023-08-24T10:04:39;100834.66;;;34.46;100.00
46718;BME280;32448;44.960;-0.698;2023-08-24T10:07:14;100834.72;;;34.66;100.00
46718;BME280;32448;44.960;-0.698;2023-08-24T10:10:03;100824.09;;;34.75;100.00
46718;BME280;32448;44.960;-0.698;2023-08-24T10:12:38;100810.50;;;34.75;100.00
46718;BME280;32448;44.960;-0.698;2023-08-24T10:15:17;100812.34;;;34.74;100.00
46718;BME280;32448;44.960;-0.698;2023-08-24T10:17:53;100809.09;;;34.91;100.00
46718;BME280;32448;44.960;-0.698;2023-08-24T10:20:25;100818.88;;;35.15;100.00
46718;BME280;32448;44.960;-0.698;2023-08-24T10:23:02;100825.53;;;35.22;100.00
46718;BME280;32448;44.960;-0.698;2023-08-24T10:25:37;100820.09;;;35.33;100.00
46718;BME280;32448;44.960;-0.698;2023-08-24T10:28:16;100813.13;;;35.40;92.31
46718;BME280;32448;44.960;-0.698;2023-08-24T10:30:57;100813.72;;;35.44;80.44
46718;BME280;32448;44.960;-0.698;2023-08-24T10:33:38;100808.34;;;35.53;82.91
46718;BME280;32448;44.960;-0.698;2023-08-24T10:36:12;100806.97;;;35.68;79.91
46718;BME280;32448;44.960;-0.698;2023-08-24T10:38:46;100812.41;;;35.68;80.99
46718;BME280;32448;44.960;-0.698;2023-08-24T10:41:21;100804.94;;;35.82;80.49
46718;BME280;32448;44.960;-0.698;2023-08-24T10:44:07;100802.84;;;35.95;86.94
46718;BME280;32448;44.960;-0.698;2023-08-24T10:47:05;100804.38;;;36.18;83.21
46718;BME280;32448;44.960;-0.698;2023-08-24T10:49:40;100804.03;;;36.23;80.93
46718;BME280;32448;44.960;-0.698;2023-08-24T10:52:17;100805.91;;;36.32;85.76
46718;BME280;32448;44.960;-0.698;2023-08-24T10:54:52;100806.09;;;36.50;66.85
46718;BME280;32448;44.960;-0.698;2023-08-24T10:57:35;100802.53;;;36.68;79.36
46718;BME280;32448;44.960;-0.698;2023-08-24T11:00:14;100809.97;;;36.57;75.53
46718;BME280;32448;44.960;-0.698;2023-08-24T11:02:56;100800.97;;;36.66;69.80
46718;BME280;32448;44.960;-0.698;2023-08-24T11:05:31;100810.47;;;36.71;63.40
46718;BME280;32448;44.960;-0.698;2023-08-24T11:08:06;100813.19;;;36.81;59.29
46718;BME280;32448;44.960;-0.698;2023-08-24T11:13:18;100817.50;;;36.93;62.87
46718;BME280;32448;44.960;-0.698;2023-08-24T11:15:57;100812.50;;;36.98;53.61
46718;BME280;32448;44.960;-0.698;2023-08-24T11:18:39;100813.34;;;36.99;57.82
46718;BME280;32448;44.960;-0.698;2023-08-24T11:21:16;100807.47;;;37.03;58.51
46718;BME280;32448;44.960;-0.698;2023-08-24T11:23:55;100803.59;;;36.96;54.26
46718;BME280;32448;44.960;-0.698;2023-08-24T11:26:33;100818.53;;;37.11;57.57
46718;BME280;32448;44.960;-0.698;2023-08-24T11:29:07;100800.75;;;37.17;58.35
46718;BME280;32448;44.960;-0.698;2023-08-24T11:31:41;100802.88;;;37.23;58.46
46718;BME280;32448;44.960;-0.698;2023-08-24T11:34:16;100806.06;;;37.18;57.62
46718;BME280;32448;44.960;-0.698;2023-08-24T11:36:52;100796.53;;;37.13;51.96
46718;BME280;32448;44.960;-0.698;2023-08-24T11:39:27;100795.03;;;37.20;51.78
46718;BME280;32448;44.960;-0.698;2023-08-24T11:42:07;100790.28;;;37.22;48.22
46718;BME280;32448;44.960;-0.698;2023-08-24T11:44:49;100790.69;;;37.27;52.38
46718;BME280;32448;44.960;-0.698;2023-08-24T11:47:28;100786.38;;;37.34;49.02
46718;BME280;32448;44.960;-0.698;2023-08-24T11:50:02;100787.59;;;37.59;49.19
46718;BME280;32448;44.960;-0.698;2023-08-24T11:52:40;100790.47;;;37.58;47.26
46718;BME280;32448;44.960;-0.698;2023-08-24T11:55:22;100786.75;;;37.59;41.12
46718;BME280;32448;44.960;-0.698;2023-08-24T11:57:56;100791.06;;;37.71;44.61
46718;BME280;32448;44.960;-0.698;2023-08-24T12:00:30;100789.66;;;37.67;48.14
46718;BME280;32448;44.960;-0.698;2023-08-24T12:03:05;100783.72;;;37.71;43.18
46718;BME280;32448;44.960;-0.698;2023-08-24T12:05:43;100784.88;;;37.59;41.83
46718;BME280;32448;44.960;-0.698;2023-08-24T12:08:18;100780.56;;;37.76;42.80
46718;BME280;32448;44.960;-0.698;2023-08-24T12:10:51;100786.94;;;37.94;42.50
46718;BME280;32448;44.960;-0.698;2023-08-24T12:13:26;100784.25;;;37.84;42.47
46718;BME280;32448;44.960;-0.698;2023-08-24T12:16:04;100777.88;;;37.66;43.88
46718;BME280;32448;44.960;-0.698;2023-08-24T12:18:47;100786.34;;;37.63;44.18
46718;BME280;32448;44.960;-0.698;2023-08-24T12:21:21;100776.84;;;37.58;45.52
46718;BME280;32448;44.960;-0.698;2023-08-24T12:23:59;100773.78;;;37.80;42.10
46718;BME280;32448;44.960;-0.698;2023-08-24T12:26:33;100773.09;;;37.78;46.03
46718;BME280;32448;44.960;-0.698;2023-08-24T12:29:11;100777.13;;;37.74;45.55
46718;BME280;32448;44.960;-0.698;2023-08-24T12:31:46;100777.16;;;37.64;44.33
46718;BME280;32448;44.960;-0.698;2023-08-24T12:34:25;100771.69;;;37.45;46.08
46718;BME280;32448;44.960;-0.698;2023-08-24T12:36:58;100772.84;;;37.52;44.63
46718;BME280;32448;44.960;-0.698;2023-08-24T12:39:36;100768.38;;;37.70;46.23
46718;BME280;32448;44.960;-0.698;2023-08-24T12:42:12;100780.41;;;38.14;45.21
46718;BME280;32448;44.960;-0.698;2023-08-24T12:44:47;100768.91;;;38.20;41.84
46718;BME280;32448;44.960;-0.698;2023-08-24T12:47:20;100770.56;;;38.31;43.56
46718;BME280;32448;44.960;-0.698;2023-08-24T12:49:53;100757.19;;;38.28;40.89
46718;BME280;32448;44.960;-0.698;2023-08-24T12:52:27;100763.09;;;38.33;42.21
46718;BME280;32448;44.960;-0.698;2023-08-24T12:55:02;100757.28;;;38.36;43.90
46718;BME280;32448;44.960;-0.698;2023-08-24T12:57:35;100760.94;;;38.54;45.08
46718;BME280;32448;44.960;-0.698;2023-08-24T13:00:08;100751.56;;;38.57;43.07
46718;BME280;32448;44.960;-0.698;2023-08-24T13:02:45;100750.03;;;38.45;44.53
46718;BME280;32448;44.960;-0.698;2023-08-24T13:05:20;100746.66;;;38.60;44.69
46718;BME280;32448;44.960;-0.698;2023-08-24T13:07:54;100746.03;;;38.67;41.92
46718;BME280;32448;44.960;-0.698;2023-08-24T13:10:29;100748.69;;;38.58;44.66
46718;BME280;32448;44.960;-0.698;2023-08-24T13:13:04;100739.50;;;38.50;41.72
46718;BME280;32448;44.960;-0.698;2023-08-24T13:15:38;100735.84;;;38.41;39.77
46718;BME280;32448;44.960;-0.698;2023-08-24T13:18:11;100735.94;;;38.49;39.24
46718;BME280;32448;44.960;-0.698;2023-08-24T13:20:43;100729.16;;;38.71;40.19
46718;BME280;32448;44.960;-0.698;2023-08-24T13:26:18;100730.34;;;38.86;38.02
46718;BME280;32448;44.960;-0.698;2023-08-24T13:28:55;100723.78;;;38.97;36.30
46718;BME280;32448;44.960;-0.698;2023-08-24T13:31:30;100713.56;;;38.99;35.28
46718;BME280;32448;44.960;-0.698;2023-08-24T13:34:06;100720.00;;;39.16;36.76
46718;BME280;32448;44.960;-0.698;2023-08-24T13:36:43;100715.28;;;39.26;34.96
46718;BME280;32448;44.960;-0.698;2023-08-24T13:39:15;100723.88;;;39.31;35.40
46718;BME280;32448;44.960;-0.698;2023-08-24T13:41:49;100717.38;;;39.32;35.52
46718;BME280;32448;44.960;-0.698;2023-08-24T13:44:22;100713.25;;;39.28;35.88
46718;BME280;32448;44.960;-0.698;2023-08-24T13:46:56;100699.03;;;39.24;35.86
46718;BME280;32448;44.960;-0.698;2023-08-24T13:49:29;100683.31;;;39.26;36.31
46718;BME280;32448;44.960;-0.698;2023-08-24T13:55:40;100689.50;;;39.28;34.18
46718;BME280;32448;44.960;-0.698;2023-08-24T13:58:26;100685.75;;;39.29;34.30
46718;BME280;32448;44.960;-0.698;2023-08-24T14:01:03;100683.72;;;39.31;32.88
46718;BME280;32448;44.960;-0.698;2023-08-24T14:03:40;100667.28;;;39.31;34.21
46718;BME280;32448;44.960;-0.698;2023-08-24T14:06:18;100668.31;;;39.30;34.44